createdAt,value
2022-11-14T00:00:47.226Z,11.40
2022-11-14T00:06:13.402Z,11.40
2022-11-14T00:11:38.315Z,11.30
2022-11-14T00:17:03.026Z,11.40
2022-11-14T00:22:27.214Z,11.40
2022-11-14T00:27:51.402Z,11.50
2022-11-14T00:33:19.776Z,11.50
2022-11-14T00:38:43.114Z,11.50
2022-11-14T00:44:06.179Z,11.50
2022-11-14T00:49:28.819Z,11.50
2022-11-14T00:54:50.793Z,11.60
2022-11-14T01:00:15.289Z,11.60
2022-11-14T01:05:45.937Z,11.60
2022-11-14T01:11:15.983Z,11.70
2022-11-14T01:16:38.197Z,11.70
2022-11-14T01:22:06.241Z,11.70
2022-11-14T01:27:32.433Z,11.70
2022-11-14T01:32:53.926Z,11.70
2022-11-14T01:38:16.951Z,11.60
2022-11-14T01:43:40.638Z,11.60
2022-11-14T01:49:16.791Z,11.60
2022-11-14T01:54:43.982Z,11.60
2022-11-14T02:00:10.251Z,11.70
2022-11-14T02:05:32.914Z,11.60
2022-11-14T02:10:56.733Z,11.40
2022-11-14T02:16:19.244Z,11.40
2022-11-14T02:21:41.979Z,11.30
2022-11-14T02:27:06.045Z,11.40
2022-11-14T02:32:30.186Z,11.50
2022-11-14T02:37:55.052Z,11.60
2022-11-14T02:43:17.744Z,11.70
2022-11-14T02:48:40.154Z,11.70
2022-11-14T02:54:01.664Z,11.70
2022-11-14T02:59:22.908Z,11.80
2022-11-14T03:04:46.102Z,11.80
2022-11-14T03:10:09.680Z,11.80
2022-11-14T03:15:31.904Z,11.80
2022-11-14T03:20:54.289Z,11.80
2022-11-14T03:26:20.920Z,11.80
2022-11-14T03:31:43.852Z,11.80
2022-11-14T03:37:07.486Z,11.80
2022-11-14T03:42:29.810Z,11.80
2022-11-14T03:47:51.834Z,11.90
2022-11-14T03:53:13.302Z,11.90
2022-11-14T03:58:35.879Z,11.90
2022-11-14T04:03:58.295Z,11.90
2022-11-14T04:09:21.265Z,11.90
2022-11-14T04:14:44.221Z,11.90
2022-11-14T04:20:07.329Z,11.90
2022-11-14T04:25:30.530Z,12.00
2022-11-14T04:30:52.142Z,11.90
2022-11-14T04:36:15.148Z,11.90
2022-11-14T04:41:37.095Z,11.80
2022-11-14T04:47:00.677Z,11.90
2022-11-14T04:52:22.614Z,11.90
2022-11-14T04:57:45.837Z,11.90
2022-11-14T05:03:09.888Z,11.90
2022-11-14T05:08:32.116Z,11.80
2022-11-14T05:13:55.773Z,11.90
2022-11-14T05:19:18.225Z,11.90
2022-11-14T05:24:40.338Z,11.90
2022-11-14T05:30:02.689Z,11.90
2022-11-14T05:35:25.544Z,11.90
2022-11-14T05:40:48.068Z,11.90
2022-11-14T05:46:15.277Z,12.00
2022-11-14T05:51:39.603Z,12.00
2022-11-14T05:57:04.705Z,11.90
2022-11-14T06:02:27.700Z,11.90
2022-11-14T06:07:59.367Z,11.90
2022-11-14T06:13:21.712Z,11.80
2022-11-14T06:18:45.499Z,11.80
2022-11-14T06:24:09.538Z,11.80
2022-11-14T06:29:35.482Z,11.90
2022-11-14T06:34:58.294Z,11.80
2022-11-14T06:40:20.505Z,11.80
2022-11-14T06:45:42.619Z,11.70
2022-11-14T06:51:05.449Z,11.70
2022-11-14T06:56:27.807Z,11.80
2022-11-14T07:01:51.240Z,11.90
2022-11-14T07:07:15.261Z,12.00
2022-11-14T07:12:37.757Z,12.10
2022-11-14T07:18:00.920Z,12.20
2022-11-14T07:23:23.439Z,12.30
2022-11-14T07:28:51.785Z,12.30
2022-11-14T07:34:16.229Z,12.30
2022-11-14T07:39:39.079Z,12.40
2022-11-14T07:45:02.106Z,12.60
2022-11-14T07:50:26.076Z,12.70
2022-11-14T07:55:48.426Z,12.80
2022-11-14T08:01:13.319Z,12.90
2022-11-14T08:06:36.750Z,13.10
2022-11-14T08:11:58.996Z,13.40
2022-11-14T08:17:23.029Z,13.80
2022-11-14T08:22:46.228Z,14.00
2022-11-14T08:28:09.177Z,14.20
2022-11-14T08:33:32.214Z,14.20
2022-11-14T08:39:01.564Z,14.10
2022-11-14T08:44:26.182Z,14.10
2022-11-14T08:49:48.786Z,13.90
2022-11-14T08:55:12.092Z,13.80
2022-11-14T09:00:34.298Z,13.70
2022-11-14T09:05:56.724Z,13.60
2022-11-14T09:11:19.616Z,13.80
2022-11-14T09:16:43.295Z,13.80
2022-11-14T09:22:05.484Z,13.90
2022-11-14T09:27:29.395Z,13.90
2022-11-14T09:32:53.131Z,13.90
2022-11-14T09:38:18.450Z,13.90
2022-11-14T09:44:20.579Z,14.00
2022-11-14T09:49:47.836Z,14.20
2022-11-14T09:55:37.265Z,14.20
2022-11-14T10:01:18.550Z,14.30
2022-11-14T10:07:01.790Z,14.40
2022-11-14T10:12:57.410Z,14.50
2022-11-14T10:18:50.397Z,14.50
2022-11-14T10:24:38.344Z,14.60
2022-11-14T10:30:20.754Z,14.70
2022-11-14T10:36:21.664Z,14.70
2022-11-14T10:42:07.136Z,14.80
2022-11-14T10:47:36.559Z,14.80
2022-11-14T10:53:05.442Z,14.80
2022-11-14T10:59:28.678Z,14.80
